»·PEaware :: WAT605 KSNA-KPHX

WAT605 :: KSNA-KPHX

FLIGHT INFORMATION

Flight Status: Arrived
Operator:
Walker Air Transport
More flights by this operator :: More flights under this callsign
Pilot: Kaleb W. (11686)
Aircraft: BOEING 737-800
(B738)
More flights by this aircraft type
Origin: KSNA John Wayne-Orange Co
United States
Destination: KPHX Phoenix Sky Harbor Intl
United States
More flights between these airports :: More routes between these airports
Route: PIGGN2 CNERY BLH HYDRR1
File this flight plan on PilotEdge
Remarks: RMK / SIMBRIEF
Altitude:
(Current/Filed)
37,000ft
Speed:
(Current/Filed)
452kts
Departed: 06-Feb-22 03:34 PM
Arrived: 06-Feb-22 04:38 PM
Distance/Time
Traveled:
294nm/1:04
Distance/Time
To Go:
Arrived

Flight Plot

Page will automatically refresh every two minutes.

Flight plan parsing failed; only flown route is shown


Map Options




Map Legend


Flown Route
Filed Route
Departure Airport
Arrival Airport
Navaid (VOR, NDB)
Fix

Horizontal Profiles

Position Reports

Time Latitude Longitude Heading Altitude Ground
Speed
06-Feb-22 15:10 33.678507 -117.862896 117 61ft 0kts
06-Feb-22 15:11 33.678507 -117.862896 117 61ft 0kts
06-Feb-22 15:12 33.678507 -117.862896 117 61ft 0kts
06-Feb-22 15:13 33.678507 -117.862896 117 61ft 0kts
06-Feb-22 15:14 33.678507 -117.862896 117 61ft 0kts
06-Feb-22 15:15 33.678507 -117.862896 117 61ft 0kts
06-Feb-22 15:16 33.678507 -117.862896 117 61ft 0kts
06-Feb-22 15:17 33.678507 -117.862896 117 61ft 0kts
06-Feb-22 15:18 33.678507 -117.862896 117 61ft 0kts
06-Feb-22 15:19 33.678507 -117.862896 117 61ft 0kts
06-Feb-22 15:20 33.678507 -117.862896 117 61ft 0kts
06-Feb-22 15:21 33.678507 -117.862896 117 61ft 0kts
06-Feb-22 15:22 33.678507 -117.862896 117 61ft 0kts
06-Feb-22 15:23 33.678507 -117.862896 117 61ft 0kts
06-Feb-22 15:24 33.678507 -117.862897 117 61ft 0kts
06-Feb-22 15:25 33.678649 -117.863224 117 57ft 0kts
06-Feb-22 15:26 33.678529 -117.863766 27 51ft 1kts
06-Feb-22 15:27 33.678475 -117.863796 26 50ft 0kts
06-Feb-22 15:28 33.678475 -117.863796 26 50ft 0kts
06-Feb-22 15:29 33.679499 -117.863144 29 58ft 9kts
06-Feb-22 15:30 33.680586 -117.863017 319 59ft 0kts
06-Feb-22 15:31 33.680586 -117.863017 319 59ft 0kts
06-Feb-22 15:32 33.681320 -117.865265 219 45ft 6kts
06-Feb-22 15:33 33.658314 -117.879732 205 656ft 180kts
06-Feb-22 15:34 33.603021 -117.894894 185 3070ft 241kts
06-Feb-22 15:35 33.535036 -117.876999 149 6452ft 267kts
06-Feb-22 15:36 33.487748 -117.809627 110 9630ft 282kts
06-Feb-22 15:37 33.480505 -117.709534 73 11234ft 340kts
06-Feb-22 15:38 33.523317 -117.609192 57 12864ft 337kts
06-Feb-22 15:39 33.568541 -117.511149 66 12971ft 339kts
06-Feb-22 15:40 33.557236 -117.398403 106 14981ft 357kts
06-Feb-22 15:41 33.521010 -117.284316 106 17477ft 372kts
06-Feb-22 15:42 33.503616 -117.162375 88 19814ft 375kts
06-Feb-22 15:43 33.500930 -117.035994 87 21897ft 386kts
06-Feb-22 15:44 33.498175 -116.905691 87 23762ft 397kts
06-Feb-22 15:45 33.496611 -116.771814 86 25540ft 405kts
06-Feb-22 15:46 33.495027 -116.636540 86 27192ft 411kts
06-Feb-22 15:47 33.493237 -116.498542 86 28668ft 417kts
06-Feb-22 15:48 33.491278 -116.359107 86 30020ft 422kts
06-Feb-22 15:49 33.489094 -116.219006 87 31749ft 416kts
06-Feb-22 15:50 33.487330 -116.082307 84 33387ft 406kts
06-Feb-22 15:51 33.510020 -115.953161 69 34766ft 395kts
06-Feb-22 15:52 33.546015 -115.829407 68 35969ft 392kts
06-Feb-22 15:53 33.581678 -115.706882 68 36963ft 391kts
06-Feb-22 15:54 33.613353 -115.581125 78 37200ft 398kts
06-Feb-22 15:55 33.614578 -115.448223 87 37201ft 400kts
06-Feb-22 15:56 33.611298 -115.314716 87 37205ft 402kts
06-Feb-22 15:57 33.607793 -115.180688 87 37210ft 401kts
06-Feb-22 15:58 33.604203 -115.047001 86 37210ft 401kts
06-Feb-22 15:59 33.600490 -114.913489 86 37210ft 402kts
06-Feb-22 16:00 33.595430 -114.779397 91 37209ft 405kts
06-Feb-22 16:01 33.573549 -114.647853 96 35708ft 404kts
06-Feb-22 16:02 33.548528 -114.517308 96 33152ft 401kts
06-Feb-22 16:03 33.523253 -114.387768 96 30424ft 401kts
06-Feb-22 16:04 33.497740 -114.258024 97 28240ft 413kts
06-Feb-22 16:05 33.471770 -114.127515 97 25965ft 395kts
06-Feb-22 16:06 33.446705 -114.001975 97 25241ft 393kts
06-Feb-22 16:07 33.421215 -113.874973 97 25184ft 390kts
06-Feb-22 16:08 33.395742 -113.748451 97 25169ft 391kts
06-Feb-22 16:09 33.370284 -113.622934 98 23660ft 384kts
06-Feb-22 16:10 33.345329 -113.500504 98 21379ft 374kts
06-Feb-22 16:11 33.323274 -113.380850 96 19899ft 369kts
06-Feb-22 16:12 33.302696 -113.261176 97 19009ft 361kts
06-Feb-22 16:13 33.284619 -113.142298 95 19026ft 364kts
06-Feb-22 16:14 33.275806 -113.025463 84 18686ft 338kts
06-Feb-22 16:15 33.278246 -112.914512 83 17686ft 332kts
06-Feb-22 16:16 33.281383 -112.807227 78 16890ft 305kts
06-Feb-22 16:17 33.291194 -112.707528 77 15896ft 301kts
06-Feb-22 16:18 33.300509 -112.608690 77 14896ft 298kts
06-Feb-22 16:19 33.309628 -112.510368 78 13892ft 295kts
06-Feb-22 16:20 33.318519 -112.413640 78 12894ft 292kts
06-Feb-22 16:21 33.327230 -112.318032 79 11860ft 281kts
06-Feb-22 16:22 33.335761 -112.223954 78 10482ft 287kts
06-Feb-22 16:23 33.344311 -112.129411 79 9354ft 280kts
06-Feb-22 16:24 33.346795 -112.038468 86 8218ft 272kts
06-Feb-22 16:25 33.345811 -111.953656 86 7106ft 239kts
06-Feb-22 16:26 33.345917 -111.882893 84 6676ft 191kts
06-Feb-22 16:28 33.346817 -111.818567 84 5792ft 190kts
06-Feb-22 16:29 33.347700 -111.756055 85 5003ft 183kts
06-Feb-22 16:30 33.366627 -111.709099 5 4420ft 168kts
06-Feb-22 16:31 33.410289 -111.715312 301 3872ft 149kts
06-Feb-22 16:32 33.421044 -111.763900 286 3993ft 150kts
06-Feb-22 16:33 33.432755 -111.813206 288 3821ft 151kts
06-Feb-22 16:34 33.439772 -111.863946 275 3185ft 153kts
06-Feb-22 16:35 33.440517 -111.915207 272 2479ft 157kts
06-Feb-22 16:36 33.440620 -111.964690 272 1663ft 143kts
06-Feb-22 16:37 33.440865 -112.010054 270 1140ft 74kts
06-Feb-22 16:38 33.440058 -112.017179 218 1140ft 0kts
06-Feb-22 16:39 33.439000 -112.013714 89 1140ft 23kts
06-Feb-22 16:40 33.439015 -112.004651 88 1140ft 26kts
06-Feb-22 16:41 33.437512 -111.999860 92 1140ft 2kts
06-Feb-22 16:42 33.437512 -111.999858 92 1140ft 0kts
06-Feb-22 16:43 33.437512 -111.999858 92 1140ft 0kts
06-Feb-22 16:44 33.437512 -111.999858 92 1140ft 0kts
06-Feb-22 16:45 33.437512 -111.999858 92 1140ft 0kts
06-Feb-22 16:46 33.437512 -111.999858 92 1140ft 0kts
06-Feb-22 16:47 33.437512 -111.999858 92 1140ft 0kts
06-Feb-22 16:48 33.437512 -111.999858 92 1140ft 0kts
06-Feb-22 16:49 33.437512 -111.999858 92 1140ft 0kts

Navigation Log

Ident Type
Flight plan parsing failed, navigation log unavailable